createdAt,value
2019-05-20T00:00:59.215Z,64.83
2019-05-20T00:15:49.733Z,64.48
2019-05-20T00:30:51.700Z,63.63
2019-05-20T00:45:49.674Z,63.54
2019-05-20T01:00:49.668Z,64.07
2019-05-20T01:15:51.461Z,64.04
2019-05-20T01:30:49.910Z,64.50
2019-05-20T02:00:49.914Z,65.71
2019-05-20T02:15:53.067Z,66.38
2019-05-20T02:30:57.376Z,66.42
2019-05-20T03:00:51.147Z,65.62
2019-05-20T03:30:49.533Z,63.49
2019-05-20T03:45:49.361Z,68.89
2019-05-20T04:00:49.864Z,61.57
2019-05-20T04:15:49.718Z,60.79
2019-05-20T04:30:49.710Z,59.48
2019-05-20T04:45:50.591Z,58.96
2019-05-20T05:00:57.493Z,58.78
2019-05-20T05:15:50.146Z,59.44
2019-05-20T05:30:50.398Z,55.92
2019-05-20T05:45:52.972Z,51.07
2019-05-20T06:00:50.407Z,48.35
2019-05-20T06:15:49.279Z,46.04
2019-05-20T06:30:50.054Z,42.89
2019-05-20T06:45:49.144Z,43.95
2019-05-20T07:00:49.136Z,42.01
2019-05-20T07:15:49.605Z,39.66
2019-05-20T07:30:49.633Z,39.55
2019-05-20T07:45:49.840Z,37.38
2019-05-20T08:00:49.394Z,34.98
2019-05-20T08:15:49.773Z,33.89
2019-05-20T08:30:50.194Z,32.07
2019-05-20T08:45:49.714Z,29.45
2019-05-20T09:00:49.630Z,30.09
2019-05-20T09:15:49.929Z,29.79
2019-05-20T09:30:50.058Z,31.49
2019-05-20T09:46:05.785Z,32.43
2019-05-20T10:00:50.399Z,34.07
2019-05-20T10:15:49.226Z,35.62
2019-05-20T10:30:49.298Z,37.11
2019-05-20T10:45:49.053Z,40.89
2019-05-20T11:01:01.888Z,47.30
2019-05-20T11:15:49.577Z,48.71
2019-05-20T11:30:49.450Z,47.42
2019-05-20T11:45:49.391Z,44.90
2019-05-20T12:00:50.749Z,47.64
2019-05-20T12:15:51.660Z,51.72
2019-05-20T12:30:50.115Z,52.19
2019-05-20T12:45:52.859Z,61.40
2019-05-20T13:00:51.215Z,64.69
2019-05-20T13:15:51.555Z,66.37
2019-05-20T13:30:50.384Z,67.52
2019-05-20T13:45:51.841Z,65.98
2019-05-20T14:00:50.355Z,57.18
2019-05-20T14:15:48.648Z,50.75
2019-05-20T14:30:48.608Z,50.76
2019-05-20T14:45:55.089Z,49.40
2019-05-20T15:00:49.089Z,56.40
2019-05-20T15:15:49.488Z,60.67
2019-05-20T15:30:49.352Z,56.45
2019-05-20T15:45:49.383Z,54.68
2019-05-20T16:00:51.289Z,54.30
2019-05-20T16:15:49.643Z,56.82
2019-05-20T16:30:49.660Z,60.34
2019-05-20T16:45:49.562Z,61.60
2019-05-20T17:00:49.499Z,62.71
2019-05-20T17:15:55.829Z,63.41
2019-05-20T17:30:53.837Z,63.73
2019-05-20T17:45:55.843Z,63.71
2019-05-20T18:00:50.243Z,64.95
2019-05-20T18:15:49.260Z,66.77
2019-05-20T18:30:49.056Z,68.99
2019-05-20T18:45:49.073Z,69.72
2019-05-20T19:00:49.994Z,70.27
2019-05-20T19:15:49.409Z,69.78
2019-05-20T19:30:51.408Z,70.28
2019-05-20T19:45:55.261Z,71.37
2019-05-20T20:00:57.480Z,72.21
2019-05-20T20:15:50.039Z,75.21
2019-05-20T20:30:51.181Z,76.05
2019-05-20T20:45:55.670Z,75.46
2019-05-20T21:00:49.572Z,75.07
2019-05-20T21:15:58.580Z,75.76
2019-05-20T21:45:52.046Z,76.14
2019-05-20T22:00:52.972Z,76.18
2019-05-20T22:15:52.343Z,75.99
2019-05-20T22:30:50.668Z,75.69
2019-05-20T22:45:54.069Z,75.55
2019-05-20T23:00:49.996Z,75.82
2019-05-20T23:15:49.454Z,77.29
2019-05-20T23:30:51.843Z,79.72
2019-05-20T23:45:59.244Z,80.20
